Time;durP1;ratioP1;P1;durP2;ratioP2;P2;SDS_P1;SDS_P2;PMS_P1;PMS_P2;Temp;Humidity;BMP_temperature;BMP_pressure;BME280_temperature;BME280_humidity;BME280_pressure;Samples;Min_cycle;Max_cycle;Signal;HPM_P1;HPM_P2
2022/04/20 00:01:00;;;;;;;5.85;3.08;;;16.80;80.90;;;;;;4944620;28;97310;-54
2022/04/20 00:03:31;;;;;;;4.20;2.20;;;16.90;80.90;;;;;;4957517;28;95769;-59
2022/04/20 00:06:03;;;;;;;6.38;2.28;;;17.00;80.90;;;;;;4957129;28;95729;-58
2022/04/20 00:08:37;;;;;;;4.85;2.10;;;17.00;80.70;;;;;;4957806;28;96521;-58
2022/04/20 00:11:09;;;;;;;4.72;2.22;;;17.10;80.40;;;;;;4957203;28;95871;-58
2022/04/20 00:13:41;;;;;;;5.72;2.40;;;17.10;80.30;;;;;;4953175;28;96930;-55
2022/04/20 00:16:12;;;;;;;;;;;17.20;80.30;;;;;;4951247;28;95914;-59
2022/04/20 00:18:43;;;;;;;3.95;1.70;;;17.30;80.20;;;;;;4961493;28;95981;-59
2022/04/20 00:21:13;;;;;;;3.42;1.70;;;17.30;80.30;;;;;;4960844;28;96025;-60
2022/04/20 00:23:44;;;;;;;3.35;1.75;;;17.20;80.30;;;;;;4961645;28;95761;-60
2022/04/20 00:26:16;;;;;;;2.72;1.83;;;17.30;80.40;;;;;;4962166;28;95838;-58
2022/04/20 00:28:46;;;;;;;3.92;1.70;;;17.30;80.30;;;;;;4960364;28;95746;-59
2022/04/20 00:31:19;;;;;;;2.83;1.45;;;17.30;80.40;;;;;;4941646;28;98505;-58
2022/04/20 00:33:50;;;;;;;3.80;1.65;;;17.40;80.50;;;;;;4943056;28;96954;-57
2022/04/20 00:36:21;;;;;;;;;;;17.40;80.30;;;;;;4942951;28;96857;-53
2022/04/20 00:38:53;;;;;;;2.83;1.05;;;17.50;80.20;;;;;;4944312;28;95947;-57
2022/04/20 00:41:24;;;;;;;5.88;1.52;;;17.50;80.00;;;;;;4931934;28;96179;-52
2022/04/20 00:43:55;;;;;;;;;;;17.60;79.80;;;;;;4938524;28;95702;-56
2022/04/20 00:46:27;;;;;;;2.80;1.50;;;17.80;78.30;;;;;;4932908;28;95720;-56
2022/04/20 00:48:59;;;;;;;3.70;1.50;;;17.80;79.40;;;;;;4942192;28;95717;-59
2022/04/20 00:51:30;;;;;;;2.28;1.40;;;17.90;79.20;;;;;;4968724;28;96542;-58
2022/04/20 00:54:02;;;;;;;1.92;1.27;;;17.90;79.00;;;;;;4941513;28;97285;-58
2022/04/20 00:56:33;;;;;;;1.90;1.25;;;17.90;79.00;;;;;;4943157;28;96333;-61
2022/04/20 00:59:03;;;;;;;3.28;1.45;;;17.90;78.80;;;;;;4958297;28;95383;-60
2022/04/20 01:01:35;;;;;;;6.50;1.90;;;17.90;78.80;;;;;;4931066;28;97938;-58
2022/04/20 01:04:07;;;;;;;3.67;1.15;;;18.00;78.60;;;;;;4937628;28;95764;-57
2022/04/20 01:07:00;;;;;;;3.22;1.17;;;17.90;78.40;;;;;;4939951;28;96746;-58
2022/04/20 01:09:51;;;;;;;5.45;1.80;;;18.00;78.40;;;;;;4940735;28;95873;-55
2022/04/20 01:12:45;;;;;;;3.45;1.23;;;18.00;78.80;;;;;;4942988;28;96345;-60
2022/04/20 01:15:22;;;;;;;2.00;1.20;;;17.90;78.90;;;;;;4964107;28;97732;-60
2022/04/20 01:18:14;;;;;;;3.28;1.50;;;17.90;78.90;;;;;;4962245;28;95687;-59
2022/04/20 01:20:56;;;;;;;2.63;1.40;;;18.00;78.90;;;;;;4954196;28;96307;-57
2022/04/20 01:23:48;;;;;;;3.53;1.30;;;18.00;78.70;;;;;;4956718;28;96131;-60
2022/04/20 01:26:43;;;;;;;3.08;1.20;;;18.10;78.60;;;;;;4954830;28;95876;-60
2022/04/20 01:29:34;;;;;;;1.75;1.17;;;18.10;78.60;;;;;;4962652;28;95311;-59
2022/04/20 01:32:34;;;;;;;1.63;1.30;;;18.10;78.50;;;;;;4950157;28;96395;-60
2022/04/20 01:35:11;;;;;;;2.45;1.42;;;18.10;78.40;;;;;;4960709;28;96356;-60
2022/04/20 01:37:42;;;;;;;2.63;1.48;;;18.10;76.60;;;;;;4961357;28;97141;-55
2022/04/20 01:40:14;;;;;;;2.65;1.48;;;18.00;78.50;;;;;;4988093;28;96154;-56
2022/04/20 01:42:47;;;;;;;2.08;1.35;;;18.00;78.70;;;;;;4952967;28;96068;-57
2022/04/20 01:45:20;;;;;;;1.23;1.00;;;18.00;78.80;;;;;;4955447;28;96674;-60
2022/04/20 01:48:08;;;;;;;2.10;1.15;;;18.10;78.70;;;;;;4960596;28;96342;-58
2022/04/20 01:54:07;;;;;;;4.38;1.45;;;18.10;78.70;;;;;;4957571;28;96739;-58
2022/04/20 01:56:51;;;;;;;2.42;1.10;;;18.10;78.80;;;;;;4961501;28;98288;-58
2022/04/20 01:59:56;;;;;;;2.28;1.30;;;18.10;78.80;;;;;;4956833;28;95698;-57
2022/04/20 02:02:41;;;;;;;1.60;1.10;;;18.10;78.70;;;;;;4960433;28;96150;-59
2022/04/20 02:05:30;;;;;;;3.15;1.55;;;18.10;78.90;;;;;;4963467;28;95411;-56
2022/04/20 02:08:24;;;;;;;2.78;1.15;;;18.10;78.80;;;;;;4957658;28;97776;-57
2022/04/20 02:11:05;;;;;;;1.85;0.93;;;18.10;78.70;;;;;;4953518;28;95972;-58
2022/04/20 02:13:36;;;;;;;1.98;1.10;;;18.10;78.80;;;;;;4960524;28;96759;-58
2022/04/20 02:16:08;;;;;;;1.55;1.00;;;18.20;78.80;;;;;;4955117;28;95814;-57
2022/04/20 02:18:57;;;;;;;2.75;1.25;;;18.20;78.90;;;;;;4959947;28;96375;-55
2022/04/20 02:21:41;;;;;;;1.77;1.20;;;18.30;78.90;;;;;;4961434;28;97225;-57
2022/04/20 02:24:13;;;;;;;2.08;1.00;;;18.30;78.80;;;;;;4993365;28;96605;-55
2022/04/20 02:26:44;;;;;;;1.30;1.20;;;18.30;78.80;;;;;;4955367;28;96407;-58
2022/04/20 02:29:15;;;;;;;2.67;1.40;;;18.40;78.90;;;;;;4960786;28;96609;-55
2022/04/20 02:31:50;;;;;;;2.28;1.50;;;18.50;78.90;;;;;;4952002;28;100078;-59
2022/04/20 02:34:23;;;;;;;3.50;1.00;;;18.50;78.60;;;;;;4958371;28;95955;-58
2022/04/20 02:36:55;;;;;;;1.23;1.10;;;18.50;78.30;;;;;;4961248;28;95909;-57
2022/04/20 02:39:26;;;;;;;1.33;1.00;;;18.50;78.80;;;;;;4961600;28;96432;-58
2022/04/20 02:41:57;;;;;;;;;;;18.50;78.20;;;;;;4949285;28;96177;-57
2022/04/20 02:44:30;;;;;;;2.28;1.30;;;18.50;77.90;;;;;;4957153;28;95449;-57
2022/04/20 02:47:01;;;;;;;4.85;1.42;;;18.60;78.10;;;;;;4953627;28;95435;-58
2022/04/20 02:49:32;;;;;;;3.35;1.15;;;18.50;78.10;;;;;;4960987;28;97419;-59
2022/04/20 02:52:03;;;;;;;1.45;1.10;;;18.60;78.10;;;;;;4960021;28;96723;-58
2022/04/20 02:54:35;;;;;;;1.23;1.10;;;18.60;78.10;;;;;;4962523;28;95838;-58
2022/04/20 02:57:05;;;;;;;5.63;1.35;;;18.70;78.30;;;;;;4944787;28;95917;-59
2022/04/20 02:59:37;;;;;;;3.38;1.50;;;18.70;78.20;;;;;;4955595;28;96140;-60
2022/04/20 03:02:07;;;;;;;3.40;1.27;;;18.70;78.20;;;;;;4951787;28;96415;-61
2022/04/20 03:04:38;;;;;;;1.45;1.20;;;18.80;78.20;;;;;;4961754;28;96304;-59
2022/04/20 03:07:10;;;;;;;2.17;1.13;;;18.80;78.10;;;;;;4960807;28;95956;-58
2022/04/20 03:09:47;;;;;;;1.63;1.00;;;18.80;78.00;;;;;;4959498;28;96823;-59
2022/04/20 03:12:20;;;;;;;2.03;1.35;;;18.80;78.00;;;;;;4959218;28;95811;-57
2022/04/20 03:14:54;;;;;;;1.42;1.30;;;18.90;78.10;;;;;;4957800;28;95746;-57
2022/04/20 03:17:25;;;;;;;1.58;1.45;;;18.90;78.10;;;;;;4947583;28;96165;-57
2022/04/20 03:19:56;;;;;;;1.20;1.10;;;18.90;78.20;;;;;;4939157;28;95953;-59
2022/04/20 03:22:28;;;;;;;0.77;0.77;;;18.90;78.10;;;;;;4962991;28;95963;-58
2022/04/20 03:24:58;;;;;;;1.75;1.40;;;18.90;78.10;;;;;;4955410;28;95738;-57
2022/04/20 03:27:53;;;;;;;2.80;1.23;;;18.90;78.10;;;;;;4940905;28;96430;-58
2022/04/20 03:30:23;;;;;;;1.27;0.70;;;18.90;78.10;;;;;;4934013;28;98827;-59
2022/04/20 03:32:55;;;;;;;3.20;1.35;;;18.90;78.10;;;;;;4937896;28;97704;-59
2022/04/20 03:35:26;;;;;;;3.20;0.90;;;19.00;77.90;;;;;;4935349;28;96272;-59
2022/04/20 03:37:58;;;;;;;1.35;1.10;;;19.00;78.00;;;;;;4966584;28;95590;-58
2022/04/20 03:40:30;;;;;;;1.30;1.20;;;19.00;78.00;;;;;;4933647;28;97245;-60
2022/04/20 03:43:04;;;;;;;2.05;1.65;;;19.00;77.90;;;;;;4935157;28;96783;-59
2022/04/20 03:45:34;;;;;;;2.95;1.05;;;19.00;77.90;;;;;;4931024;28;95750;-65
2022/04/20 03:48:05;;;;;;;1.08;1.00;;;19.10;78.00;;;;;;4940486;28;95833;-61
2022/04/20 03:50:36;;;;;;;2.50;1.15;;;19.10;78.00;;;;;;4936249;28;96464;-63
2022/04/20 03:53:07;;;;;;;;;;;19.10;77.90;;;;;;4938750;28;96594;-62
2022/04/20 03:55:38;;;;;;;1.15;1.05;;;19.20;77.90;;;;;;4943333;28;96112;-60
2022/04/20 03:58:08;;;;;;;2.23;1.03;;;19.20;77.90;;;;;;4943009;28;95801;-61
2022/04/20 04:00:39;;;;;;;2.33;0.90;;;19.40;77.90;;;;;;4958042;28;96160;-60
2022/04/20 04:03:10;;;;;;;1.35;0.88;;;19.50;77.80;;;;;;4953871;28;95944;-61
2022/04/20 04:05:42;;;;;;;2.35;1.10;;;19.60;77.70;;;;;;4938930;28;96012;-61
2022/04/20 04:08:21;;;;;;;1.42;1.00;;;19.70;77.60;;;;;;4939178;28;95758;-59
2022/04/20 04:10:51;;;;;;;;;;;19.70;77.40;;;;;;4953872;28;96136;-59
2022/04/20 04:13:22;;;;;;;1.87;1.17;;;19.80;77.30;;;;;;4941187;28;96808;-59
2022/04/20 04:15:57;;;;;;;1.50;0.90;;;19.90;77.40;;;;;;4932441;28;95428;-62
2022/04/20 04:18:30;;;;;;;1.13;1.02;;;19.90;77.40;;;;;;4938664;28;95788;-58
2022/04/20 04:21:06;;;;;;;1.73;1.38;;;20.00;77.30;;;;;;4929646;28;97810;-61
2022/04/20 04:23:39;;;;;;;1.60;0.98;;;20.00;77.30;;;;;;4936722;28;97629;-61
2022/04/20 04:26:17;;;;;;;1.20;1.10;;;20.10;77.30;;;;;;4933865;28;95495;-61
2022/04/20 04:28:50;;;;;;;2.05;1.25;;;20.20;77.20;;;;;;4941332;28;95897;-60
2022/04/20 04:31:24;;;;;;;1.73;1.00;;;20.20;76.20;;;;;;4931697;28;95844;-60
2022/04/20 04:33:55;;;;;;;0.90;0.90;;;20.20;75.90;;;;;;4937676;28;95802;-60
2022/04/20 04:36:27;;;;;;;1.60;1.35;;;20.00;75.40;;;;;;4941628;28;97028;-60
2022/04/20 04:39:01;;;;;;;2.35;1.25;;;19.80;75.90;;;;;;4939828;28;96265;-60
2022/04/20 04:41:34;;;;;;;0.90;0.90;;;19.70;76.30;;;;;;4924871;28;96020;-60
2022/04/20 04:44:07;;;;;;;1.80;1.10;;;19.60;76.60;;;;;;4935103;28;99766;-59
2022/04/20 04:49:46;;;;;;;0.90;0.90;;;19.50;77.00;;;;;;4952773;28;96048;-61
2022/04/20 04:52:18;;;;;;;1.05;0.95;;;19.50;77.20;;;;;;4920263;28;99609;-61
2022/04/20 04:54:57;;;;;;;0.98;0.80;;;19.60;77.40;;;;;;4939978;28;96462;-58
2022/04/20 04:57:32;;;;;;;1.30;0.95;;;19.80;77.20;;;;;;4939029;28;96198;-61
2022/04/20 05:00:03;;;;;;;1.05;0.95;;;19.90;77.10;;;;;;4965747;28;95903;-60
2022/04/20 05:02:48;;;;;;;0.98;0.88;;;20.00;77.00;;;;;;4936787;28;98651;-59
2022/04/20 05:05:20;;;;;;;0.80;0.80;;;20.10;76.90;;;;;;4944165;28;96064;-59
2022/04/20 05:07:54;;;;;;;1.02;0.88;;;20.10;76.90;;;;;;4944936;28;95849;-57
2022/04/20 05:10:26;;;;;;;1.20;1.08;;;20.30;76.90;;;;;;4944674;28;96028;-58
2022/04/20 05:12:59;;;;;;;4.60;1.40;;;20.40;77.10;;;;;;4942475;28;98518;-59
2022/04/20 05:15:32;;;;;;;1.27;1.08;;;20.40;76.90;;;;;;4933969;28;96109;-57
2022/04/20 05:18:03;;;;;;;2.00;0.90;;;20.40;76.80;;;;;;4959952;28;95500;-58
2022/04/20 05:20:34;;;;;;;1.00;0.90;;;20.50;76.70;;;;;;4943721;28;95936;-56
2022/04/20 05:23:10;;;;;;;1.38;0.90;;;20.50;76.80;;;;;;4940000;28;96535;-59
2022/04/20 05:25:41;;;;;;;1.40;0.90;;;20.60;76.80;;;;;;4943344;28;99748;-55
2022/04/20 05:28:12;;;;;;;0.80;0.80;;;20.60;76.80;;;;;;4959247;28;95922;-57
2022/04/20 05:30:42;;;;;;;2.22;0.98;;;20.70;77.50;;;;;;4929649;28;96386;-61
2022/04/20 05:33:14;;;;;;;1.15;1.05;;;20.70;76.70;;;;;;4941818;28;96780;-57
2022/04/20 05:35:45;;;;;;;1.00;1.00;;;20.70;76.70;;;;;;4943444;28;96939;-59
2022/04/20 05:43:56;;;;;;;0.80;0.80;;;20.90;76.60;;;;;;4935415;28;97600;-59
2022/04/20 05:46:30;;;;;;;1.23;0.80;;;20.90;76.40;;;;;;4956268;28;97392;-57
2022/04/20 05:49:30;;;;;;;1.37;1.07;;;21.00;76.60;;;;;;4943036;28;96106;-61
2022/04/20 05:51:59;;;;;;;1.55;0.95;;;21.00;76.30;;;;;;4943466;28;95880;-57
2022/04/20 05:54:30;;;;;;;0.88;0.88;;;21.10;76.30;;;;;;4941644;28;98437;-57
2022/04/20 05:57:02;;;;;;;1.20;0.75;;;21.10;76.20;;;;;;4937377;28;96094;-56
2022/04/20 05:59:35;;;;;;;1.38;0.88;;;21.10;76.20;;;;;;4941573;28;96600;-58
2022/04/20 06:02:07;;;;;;;6.65;1.10;;;21.10;76.10;;;;;;4933298;28;95960;-57
2022/04/20 06:04:38;;;;;;;3.08;0.90;;;21.00;74.10;;;;;;4940925;28;98348;-53
2022/04/20 06:07:29;;;;;;;3.37;0.97;;;20.80;73.90;;;;;;4942468;28;95841;-57
2022/04/20 06:10:19;;;;;;;1.38;0.90;;;20.80;75.30;;;;;;4940733;28;96044;-56
2022/04/20 06:13:03;;;;;;;4.80;1.00;;;20.80;73.80;;;;;;4941992;28;96208;-59
2022/04/20 06:15:54;;;;;;;2.72;1.00;;;20.60;74.10;;;;;;4934173;28;98151;-58
2022/04/20 06:18:30;;;;;;;1.90;1.00;;;20.50;73.50;;;;;;4946043;28;97802;-57
2022/04/20 06:21:26;;;;;;;0.80;0.80;;;20.40;74.90;;;;;;4957094;28;95780;-55
2022/04/20 06:24:21;;;;;;;1.70;0.80;;;20.30;75.20;;;;;;4958143;28;96320;-59
2022/04/20 06:27:08;;;;;;;1.05;0.95;;;20.20;75.30;;;;;;4960769;28;96340;-57
2022/04/20 06:30:06;;;;;;;3.30;0.90;;;20.20;75.40;;;;;;4962036;28;96074;-58
2022/04/20 06:32:56;;;;;;;2.80;1.10;;;20.20;71.00;;;;;;4961899;28;96426;-60
2022/04/20 06:35:56;;;;;;;1.77;1.23;;;19.80;71.40;;;;;;4960178;28;95929;-60
2022/04/20 06:38:47;;;;;;;0.95;0.88;;;19.50;72.00;;;;;;4961850;28;96374;-54
2022/04/20 06:41:27;;;;;;;2.35;1.05;;;19.50;75.20;;;;;;4953624;28;97353;-53
2022/04/20 06:44:18;;;;;;;1.50;1.17;;;19.80;75.40;;;;;;4951223;28;96469;-58
2022/04/20 06:47:12;;;;;;;2.75;0.80;;;19.90;74.10;;;;;;4951076;28;98538;-54
2022/04/20 06:50:14;;;;;;;2.90;1.63;;;19.90;73.90;;;;;;4961890;28;96005;-59
2022/04/20 06:58:42;;;;;;;2.92;1.05;;;20.00;73.20;;;;;;4960150;28;96237;-55
2022/04/20 07:01:24;;;;;;;1.63;1.02;;;19.90;74.20;;;;;;4952203;28;96486;-53
2022/04/20 07:04:22;;;;;;;2.97;1.27;;;20.00;74.40;;;;;;4959758;28;95565;-55
2022/04/20 07:07:16;;;;;;;2.70;1.05;;;20.00;73.20;;;;;;4960203;28;96389;-54
2022/04/20 07:10:09;;;;;;;1.58;0.95;;;20.00;74.20;;;;;;4960199;28;96003;-56
2022/04/20 07:12:51;;;;;;;2.17;1.13;;;19.90;73.20;;;;;;4959439;28;98635;-57
2022/04/20 07:15:25;;;;;;;3.03;0.90;;;20.00;74.40;;;;;;4953689;28;97294;-51
2022/04/20 07:17:55;;;;;;;2.72;1.13;;;20.00;73.80;;;;;;4940039;28;96498;-50
2022/04/20 07:20:44;;;;;;;3.22;1.20;;;20.00;74.50;;;;;;4937731;28;95721;-54
2022/04/20 07:23:27;;;;;;;1.95;0.93;;;19.80;72.80;;;;;;4941570;28;96700;-59
2022/04/20 07:26:02;;;;;;;3.70;1.33;;;19.90;74.50;;;;;;4935794;28;96125;-56
2022/04/20 07:29:01;;;;;;;3.33;0.98;;;19.80;73.60;;;;;;4936883;28;96267;-55
2022/04/20 07:31:47;;;;;;;4.10;1.30;;;19.80;74.00;;;;;;4977231;28;96833;-55
2022/04/20 07:34:38;;;;;;;3.05;0.80;;;19.90;75.60;;;;;;4959747;28;96798;-53
2022/04/20 07:37:27;;;;;;;2.10;0.85;;;19.90;75.70;;;;;;4961041;28;95918;-51
2022/04/20 07:40:18;;;;;;;1.55;0.93;;;20.00;75.60;;;;;;4950836;28;95874;-55
2022/04/20 07:43:08;;;;;;;0.70;0.70;;;20.00;75.50;;;;;;4952600;28;96420;-51
2022/04/20 07:45:40;;;;;;;2.38;1.00;;;20.00;75.70;;;;;;4948504;28;95939;-55
2022/04/20 07:48:11;;;;;;;2.10;0.90;;;20.00;75.70;;;;;;4955367;28;95964;-56
2022/04/20 07:51:07;;;;;;;1.52;1.08;;;19.90;75.80;;;;;;4951251;28;95977;-57
2022/04/20 07:53:46;;;;;;;3.88;1.35;;;19.90;75.90;;;;;;4958033;28;95751;-55
2022/04/20 07:56:36;;;;;;;4.93;1.10;;;19.90;76.50;;;;;;4961046;28;96128;-56
2022/04/20 07:59:22;;;;;;;2.20;1.48;;;19.90;76.40;;;;;;4960396;28;97286;-57
2022/04/20 08:02:20;;;;;;;2.17;1.70;;;20.00;76.40;;;;;;4945645;28;95905;-57
2022/04/20 08:05:12;;;;;;;2.40;1.50;;;19.90;76.30;;;;;;4963510;28;97016;-56
2022/04/20 08:07:44;;;;;;;2.80;1.38;;;19.90;74.10;;;;;;4960727;28;96092;-55
2022/04/20 08:10:15;;;;;;;2.65;1.65;;;20.00;76.80;;;;;;4959783;28;95849;-54
2022/04/20 08:12:46;;;;;;;3.85;1.67;;;19.90;76.80;;;;;;4961318;28;95331;-54
2022/04/20 08:15:28;;;;;;;2.35;1.73;;;19.90;76.80;;;;;;4984350;28;96881;-53
2022/04/20 08:18:00;;;;;;;1.95;1.40;;;19.90;77.00;;;;;;4956847;28;97647;-57
2022/04/20 08:20:43;;;;;;;1.70;1.40;;;19.90;77.00;;;;;;4957009;28;95748;-56
2022/04/20 08:23:16;;;;;;;4.18;1.73;;;19.90;77.10;;;;;;4960140;28;95279;-57
2022/04/20 08:25:48;;;;;;;2.90;2.05;;;19.90;77.20;;;;;;4961048;28;95783;-55
2022/04/20 08:28:18;;;;;;;;;;;19.90;77.20;;;;;;4959931;28;96651;-52
2022/04/20 08:30:50;;;;;;;2.88;1.75;;;19.80;77.30;;;;;;4952401;28;96534;-53
2022/04/20 08:33:21;;;;;;;3.88;1.73;;;19.80;77.40;;;;;;4954868;28;95873;-57
2022/04/20 08:35:53;;;;;;;1.85;1.50;;;19.80;77.40;;;;;;4955923;28;95938;-52
2022/04/20 08:38:24;;;;;;;2.35;1.92;;;19.80;77.40;;;;;;4958658;28;95720;-53
2022/04/20 08:40:59;;;;;;;2.78;1.80;;;19.70;77.40;;;;;;4953039;28;97164;-57
2022/04/20 08:43:31;;;;;;;2.75;1.85;;;19.70;77.50;;;;;;4954074;28;96797;-56
2022/04/20 08:46:03;;;;;;;3.85;3.00;;;19.70;77.60;;;;;;4955120;28;96621;-54
2022/04/20 08:48:33;;;;;;;3.65;2.72;;;19.70;77.70;;;;;;4964932;28;95910;-56
2022/04/20 08:51:05;;;;;;;9.30;4.93;;;19.70;77.80;;;;;;4957020;28;95881;-57
2022/04/20 08:53:37;;;;;;;9.50;5.85;;;19.70;78.00;;;;;;4959909;28;96017;-57
2022/04/20 08:59:02;;;;;;;13.43;9.38;;;19.60;78.30;;;;;;4960847;28;95932;-60
2022/04/20 09:01:32;;;;;;;12.95;9.90;;;19.60;77.40;;;;;;4957069;28;95308;-60
2022/04/20 09:04:05;;;;;;;16.53;10.50;;;19.70;78.70;;;;;;4963412;28;95372;-54
2022/04/20 09:06:36;;;;;;;14.57;9.35;;;19.60;78.80;;;;;;4960406;28;96062;-58
2022/04/20 09:09:07;;;;;;;15.90;10.05;;;19.60;79.00;;;;;;4959591;28;97358;-56
2022/04/20 09:11:39;;;;;;;13.37;8.63;;;19.60;79.10;;;;;;4961693;28;95651;-56
2022/04/20 09:14:14;;;;;;;14.85;10.00;;;19.60;79.30;;;;;;4963174;28;96153;-57
2022/04/20 09:16:51;;;;;;;15.50;9.65;;;19.60;78.10;;;;;;4954971;28;96431;-56
2022/04/20 09:19:28;;;;;;;12.27;8.60;;;19.60;79.30;;;;;;4963935;28;95972;-57
2022/04/20 09:21:59;;;;;;;13.35;8.70;;;19.60;79.20;;;;;;4963508;28;96124;-54
2022/04/20 09:24:29;;;;;;;14.02;8.68;;;19.50;79.30;;;;;;4958116;28;95974;-53
2022/04/20 09:26:59;;;;;;;15.60;7.55;;;19.50;79.40;;;;;;4962724;28;96442;-57
2022/04/20 09:29:29;;;;;;;12.68;7.82;;;19.50;79.40;;;;;;4964068;28;95914;-58
2022/04/20 09:32:00;;;;;;;12.00;7.75;;;19.60;79.30;;;;;;4955887;28;96186;-56
2022/04/20 09:34:53;;;;;;;10.77;7.43;;;19.60;79.30;;;;;;4960527;28;97008;-58
2022/04/20 09:37:24;;;;;;;12.30;7.35;;;19.60;79.30;;;;;;4961991;28;96457;-58
2022/04/20 09:40:01;;;;;;;10.55;6.88;;;19.60;79.30;;;;;;4938996;28;98237;-55
2022/04/20 09:42:34;;;;;;;10.23;6.85;;;19.60;79.30;;;;;;4949281;28;101270;-57
2022/04/20 09:45:08;;;;;;;12.93;7.10;;;19.60;78.10;;;;;;4962176;28;95687;-58
2022/04/20 09:50:30;;;;;;;11.15;6.38;;;19.50;79.10;;;;;;4961117;28;97597;-58
2022/04/20 09:53:05;;;;;;;11.95;6.28;;;19.50;79.20;;;;;;4962082;28;96016;-57
2022/04/20 09:55:41;;;;;;;11.07;5.57;;;19.50;79.20;;;;;;4958841;28;95888;-58
2022/04/20 09:58:22;;;;;;;10.07;5.75;;;19.50;79.20;;;;;;4961384;28;95924;-57
2022/04/20 10:00:54;;;;;;;9.75;6.20;;;19.50;79.10;;;;;;4968865;28;96038;-54
2022/04/20 10:03:24;;;;;;;;;;;19.50;79.10;;;;;;4962466;28;95413;-56
2022/04/20 10:05:56;;;;;;;8.70;5.18;;;19.50;79.00;;;;;;4963443;28;96192;-58
2022/04/20 10:08:29;;;;;;;8.02;5.63;;;19.50;78.90;;;;;;4961882;28;95360;-59
2022/04/20 10:11:03;;;;;;;7.72;4.93;;;19.60;78.90;;;;;;4961134;28;95886;-55
2022/04/20 10:13:37;;;;;;;9.15;5.28;;;19.50;78.80;;;;;;4955630;28;96035;-56
2022/04/20 10:16:12;;;;;;;7.32;5.20;;;19.50;78.80;;;;;;4949943;28;100180;-56
2022/04/20 10:18:47;;;;;;;7.85;5.05;;;19.50;78.80;;;;;;4959959;28;95929;-57
2022/04/20 10:21:19;;;;;;;8.73;4.72;;;19.50;78.80;;;;;;4958510;28;98634;-56
2022/04/20 10:23:52;;;;;;;9.43;4.90;;;19.50;78.60;;;;;;4958539;28;96140;-55
2022/04/20 10:26:25;;;;;;;8.25;5.55;;;19.50;78.60;;;;;;4960104;28;96042;-56
2022/04/20 10:29:08;;;;;;;8.80;4.60;;;19.50;78.70;;;;;;4961342;28;95725;-55
2022/04/20 10:32:09;;;;;;;5.53;4.15;;;19.50;77.50;;;;;;4949326;28;95985;-55
2022/04/20 10:34:46;;;;;;;7.50;4.88;;;19.40;78.50;;;;;;4956232;28;97808;-57
2022/04/20 10:38:11;;;;;;;5.72;4.18;;;19.50;78.50;;;;;;4959813;28;95868;-59
2022/04/20 10:40:57;;;;;;;6.82;4.28;;;19.50;78.50;;;;;;4952124;28;98699;-56
2022/04/20 10:43:34;;;;;;;8.65;4.65;;;19.50;78.40;;;;;;4953462;28;97383;-57
2022/04/20 10:46:14;;;;;;;6.40;4.10;;;19.40;78.40;;;;;;4951642;28;96156;-58
2022/04/20 10:48:58;;;;;;;9.82;5.50;;;19.40;78.30;;;;;;4955589;28;95364;-53
2022/04/20 10:51:34;;;;;;;6.97;4.03;;;19.40;78.20;;;;;;4958321;28;95690;-59
2022/04/20 10:54:29;;;;;;;6.68;3.88;;;19.30;78.10;;;;;;4960756;28;96422;-58
2022/04/20 10:57:07;;;;;;;9.82;3.80;;;19.30;78.00;;;;;;4958361;28;96061;-62
2022/04/20 10:59:41;;;;;;;7.18;4.05;;;19.20;78.20;;;;;;4959339;28;96878;-59
2022/04/20 11:02:12;;;;;;;7.57;4.10;;;19.30;78.60;;;;;;4952497;28;95847;-57
2022/04/20 11:04:46;;;;;;;6.00;3.72;;;19.40;78.80;;;;;;4954922;28;96116;-58
2022/04/20 11:07:23;;;;;;;5.78;3.67;;;19.40;78.90;;;;;;4960865;28;96003;-59
2022/04/20 11:10:03;;;;;;;5.75;3.63;;;19.50;78.90;;;;;;4961275;28;96238;-56
2022/04/20 11:18:39;;;;;;;5.43;3.42;;;19.50;78.70;;;;;;4959850;28;96009;-58
2022/04/20 11:21:28;;;;;;;4.07;3.20;;;19.60;78.70;;;;;;4959754;28;95781;-59
2022/04/20 11:24:08;;;;;;;4.20;3.17;;;19.60;78.70;;;;;;4958727;28;95927;-57
2022/04/20 11:26:39;;;;;;;5.28;3.55;;;19.60;78.90;;;;;;4961078;28;95930;-59
2022/04/20 11:29:27;;;;;;;5.15;3.10;;;19.70;78.80;;;;;;4961550;28;98110;-58
2022/04/20 11:32:02;;;;;;;4.00;2.65;;;19.70;78.60;;;;;;4954690;28;95922;-56
2022/04/20 11:34:41;;;;;;;4.88;3.15;;;19.80;78.50;;;;;;4944570;28;96093;-59
2022/04/20 11:37:13;;;;;;;4.18;3.15;;;19.80;78.40;;;;;;4959129;28;95996;-56
2022/04/20 11:39:45;;;;;;;4.97;3.30;;;19.90;78.40;;;;;;4953911;28;97808;-60
2022/04/20 11:42:18;;;;;;;3.38;2.38;;;19.90;78.20;;;;;;4947842;28;95989;-59
2022/04/20 11:44:50;;;;;;;5.47;3.10;;;19.90;78.20;;;;;;4960585;28;96297;-59
2022/04/20 11:47:27;;;;;;;4.13;2.92;;;19.90;78.10;;;;;;4946739;28;96118;-53
2022/04/20 11:49:58;;;;;;;4.97;2.75;;;19.90;78.10;;;;;;4938269;28;95741;-57
2022/04/20 11:52:58;;;;;;;4.55;3.60;;;19.90;77.90;;;;;;4940656;28;95754;-61
2022/04/20 11:55:55;;;;;;;4.93;3.13;;;19.70;77.40;;;;;;4934445;28;96125;-59
2022/04/20 11:58:25;;;;;;;5.23;3.30;;;19.60;77.50;;;;;;4936686;28;96019;-58
2022/04/20 12:01:03;;;;;;;4.07;2.85;;;19.50;77.60;;;;;;4932791;28;98410;-57
2022/04/20 12:03:42;;;;;;;5.13;3.97;;;19.50;76.40;;;;;;4957840;28;96203;-56
2022/04/20 12:06:13;;;;;;;4.28;3.10;;;19.40;77.50;;;;;;4958236;28;96049;-59
2022/04/20 12:08:47;;;;;;;4.82;3.50;;;19.40;77.50;;;;;;4955704;28;96365;-59
2022/04/20 12:11:17;;;;;;;4.38;3.10;;;19.30;77.20;;;;;;4953907;28;96396;-55
2022/04/20 12:13:59;;;;;;;;;;;19.30;77.00;;;;;;4954950;28;95265;-56
2022/04/20 12:16:34;;;;;;;4.18;3.05;;;19.30;76.90;;;;;;4952614;28;96010;-56
2022/04/20 12:19:07;;;;;;;3.45;3.15;;;19.20;76.70;;;;;;4954558;28;96363;-57
2022/04/20 12:21:46;;;;;;;4.50;3.30;;;19.20;76.70;;;;;;4955448;28;96324;-58
2022/04/20 12:24:27;;;;;;;4.32;3.33;;;19.20;76.80;;;;;;4956259;28;96127;-59
2022/04/20 12:26:58;;;;;;;3.78;3.25;;;19.10;76.60;;;;;;4955822;28;95788;-59
2022/04/20 12:29:33;;;;;;;;;;;19.10;76.50;;;;;;4953955;28;96965;-58
2022/04/20 12:32:08;;;;;;;5.97;3.35;;;19.10;76.00;;;;;;4953469;28;95811;-57
2022/04/20 12:35:01;;;;;;;7.72;3.45;;;19.00;76.50;;;;;;4956402;28;97568;-57
2022/04/20 12:37:39;;;;;;;4.75;3.20;;;19.00;76.40;;;;;;4955996;28;95449;-57
2022/04/20 12:40:20;;;;;;;;;;;19.00;76.50;;;;;;4953517;28;96883;-57
2022/04/20 12:43:07;;;;;;;4.20;3.63;;;19.00;76.40;;;;;;4948215;28;95893;-55
2022/04/20 12:45:44;;;;;;;5.38;3.58;;;18.90;76.30;;;;;;4931596;28;95881;-63
2022/04/20 12:48:14;;;;;;;5.30;3.47;;;18.90;76.30;;;;;;4938808;28;95928;-59
2022/04/20 12:50:46;;;;;;;3.90;3.35;;;18.90;76.30;;;;;;4936876;28;96891;-57
2022/04/20 12:53:18;;;;;;;6.47;4.03;;;18.80;76.40;;;;;;4939145;28;96032;-58
2022/04/20 13:04:19;;;;;;;5.80;3.65;;;19.00;76.60;;;;;;4958508;28;95733;-58
2022/04/20 13:06:51;;;;;;;3.72;3.17;;;19.00;76.40;;;;;;4959086;28;95281;-59
2022/04/20 13:09:24;;;;;;;4.47;3.50;;;19.10;76.30;;;;;;4962866;28;96008;-56
2022/04/20 13:11:56;;;;;;;3.95;3.42;;;19.10;76.30;;;;;;4960321;28;95920;-58
2022/04/20 13:14:28;;;;;;;5.18;3.30;;;19.10;76.70;;;;;;4960191;28;95909;-57
2022/04/20 13:16:59;;;;;;;4.03;3.25;;;19.10;76.90;;;;;;4953426;28;95927;-59
2022/04/20 13:19:29;;;;;;;3.92;3.38;;;19.10;77.10;;;;;;4960013;28;95729;-60
2022/04/20 13:22:00;;;;;;;;;;;19.20;77.00;;;;;;4962945;28;96358;-58
2022/04/20 13:30:08;;;;;;;3.42;2.75;;;19.50;76.70;;;;;;4965930;28;96357;-59
2022/04/20 13:32:39;;;;;;;3.65;3.28;;;19.60;76.50;;;;;;4958134;28;96572;-60
2022/04/20 13:35:10;;;;;;;3.45;3.08;;;19.70;76.50;;;;;;4958503;28;95531;-60
2022/04/20 13:37:42;;;;;;;3.33;2.92;;;19.80;74.40;;;;;;4962573;28;95786;-60
2022/04/20 13:40:20;;;;;;;3.38;3.08;;;19.90;76.30;;;;;;4962622;28;95831;-58
2022/04/20 13:42:51;;;;;;;4.50;3.03;;;19.90;76.20;;;;;;4971983;28;96095;-59
2022/04/20 13:45:25;;;;;;;3.92;3.10;;;20.00;76.00;;;;;;4960850;28;95353;-60
2022/04/20 13:47:56;;;;;;;4.38;2.80;;;20.10;75.90;;;;;;4965739;28;95655;-58
2022/04/20 13:50:26;;;;;;;2.20;2.00;;;20.10;75.70;;;;;;4965085;28;95351;-59
2022/04/20 13:52:57;;;;;;;3.13;2.72;;;20.20;75.70;;;;;;4962340;28;95843;-61
2022/04/20 13:55:29;;;;;;;2.70;2.50;;;20.30;75.50;;;;;;4962293;28;95817;-63
2022/04/20 13:57:59;;;;;;;3.58;2.85;;;20.30;75.50;;;;;;4965626;28;95969;-61
2022/04/20 14:00:30;;;;;;;2.50;2.30;;;20.30;75.30;;;;;;4957602;28;95870;-59
2022/04/20 14:03:00;;;;;;;2.50;2.13;;;20.40;75.30;;;;;;4956450;28;96457;-61
2022/04/20 14:05:32;;;;;;;3.22;2.92;;;20.50;75.30;;;;;;4954282;28;97267;-60
2022/04/20 14:08:05;;;;;;;3.22;2.90;;;20.50;75.30;;;;;;4948443;28;95842;-56
2022/04/20 14:10:38;;;;;;;3.28;2.97;;;20.40;75.30;;;;;;4954502;28;95949;-60
2022/04/20 14:13:09;;;;;;;3.03;2.47;;;20.40;75.40;;;;;;4955318;28;96304;-59
2022/04/20 14:15:41;;;;;;;2.72;2.50;;;20.40;75.40;;;;;;4948648;28;95660;-58
2022/04/20 14:18:12;;;;;;;2.55;2.35;;;20.40;75.50;;;;;;4965990;28;96074;-59
2022/04/20 14:20:42;;;;;;;2.50;2.30;;;20.40;75.50;;;;;;4965193;28;95670;-59